createdAt,value
2022-11-13T00:00:25.279Z,50.15
2022-11-13T00:01:25.292Z,51.14
2022-11-13T00:02:25.397Z,54.67
2022-11-13T00:03:25.262Z,51.42
2022-11-13T00:04:25.246Z,51.75
2022-11-13T00:05:25.245Z,48.74
2022-11-13T00:06:26.021Z,49.45
2022-11-13T00:07:25.316Z,48.29
2022-11-13T00:08:25.675Z,48.43
2022-11-13T00:09:25.212Z,49.72
2022-11-13T00:10:25.208Z,46.56
2022-11-13T00:11:25.205Z,47.03
2022-11-13T00:12:25.191Z,50.51
2022-11-13T00:13:30.125Z,50.79
2022-11-13T00:14:27.277Z,47.68
2022-11-13T00:15:25.202Z,47.66
2022-11-13T00:16:25.179Z,47.37
2022-11-13T00:17:25.197Z,46.63
2022-11-13T00:18:25.584Z,48.09
2022-11-13T00:19:25.148Z,47.28
2022-11-13T00:20:26.170Z,48.30
2022-11-13T00:21:25.129Z,48.49
2022-11-13T00:22:25.137Z,45.18
2022-11-13T00:23:25.117Z,47.24
2022-11-13T00:24:25.119Z,50.11
2022-11-13T00:25:32.210Z,47.28
2022-11-13T00:26:25.113Z,47.78
2022-11-13T00:27:25.637Z,49.65
2022-11-13T00:28:25.314Z,48.01
2022-11-13T00:29:25.085Z,47.33
2022-11-13T00:30:25.084Z,51.15
2022-11-13T00:31:25.075Z,48.45
2022-11-13T00:32:26.227Z,48.24
2022-11-13T00:33:45.487Z,49.13
2022-11-13T00:34:46.409Z,53.56
2022-11-13T00:35:26.065Z,49.39
2022-11-13T00:36:26.530Z,50.10
2022-11-13T00:37:25.664Z,49.60
2022-11-13T00:38:26.623Z,50.55
2022-11-13T00:39:25.027Z,48.77
2022-11-13T00:40:25.017Z,46.10
2022-11-13T00:41:25.032Z,48.33
2022-11-13T00:42:25.009Z,48.51
2022-11-13T00:43:24.994Z,46.65
2022-11-13T00:44:24.995Z,48.00
2022-11-13T00:45:24.988Z,47.75
2022-11-13T00:46:25.946Z,48.70
2022-11-13T00:47:24.978Z,48.25
2022-11-13T00:48:25.553Z,47.21
2022-11-13T00:49:24.962Z,48.05
2022-11-13T00:50:25.204Z,47.33
2022-11-13T00:51:24.963Z,51.82
2022-11-13T00:52:24.967Z,49.46
2022-11-13T00:53:25.850Z,47.84
2022-11-13T00:54:24.925Z,48.52
2022-11-13T00:55:24.915Z,46.00
2022-11-13T00:56:25.561Z,46.05
2022-11-13T00:57:24.906Z,45.46
2022-11-13T00:58:25.139Z,47.01
2022-11-13T00:59:25.054Z,48.27
2022-11-13T01:00:24.884Z,47.04
2022-11-13T01:01:25.911Z,50.02
2022-11-13T01:02:24.880Z,57.08
2022-11-13T01:03:25.300Z,48.22
2022-11-13T01:04:24.909Z,48.37
2022-11-13T01:05:24.872Z,49.45
2022-11-13T01:06:25.451Z,52.36
2022-11-13T01:07:24.839Z,55.91
2022-11-13T01:08:25.035Z,48.16
2022-11-13T01:09:24.822Z,49.56
2022-11-13T01:10:24.824Z,46.16
2022-11-13T01:11:24.844Z,45.84
2022-11-13T01:12:25.216Z,49.65
2022-11-13T01:13:24.832Z,49.66
2022-11-13T01:14:24.788Z,51.51
2022-11-13T01:15:24.779Z,52.29
2022-11-13T01:16:24.781Z,48.65
2022-11-13T01:17:24.774Z,47.82
2022-11-13T01:18:25.118Z,45.49
2022-11-13T01:19:24.753Z,47.86
2022-11-13T01:20:24.753Z,48.00
2022-11-13T01:21:24.745Z,48.09
2022-11-13T01:22:24.865Z,48.13
2022-11-13T01:23:24.834Z,48.69
2022-11-13T01:24:24.723Z,49.00
2022-11-13T01:25:24.727Z,48.56
2022-11-13T01:26:24.850Z,50.65
2022-11-13T01:27:24.702Z,49.31
2022-11-13T01:28:25.692Z,47.10
2022-11-13T01:29:24.685Z,47.02
2022-11-13T01:30:24.696Z,49.30
2022-11-13T01:31:25.434Z,47.36
2022-11-13T01:32:24.667Z,45.30
2022-11-13T01:33:24.668Z,45.32
2022-11-13T01:34:24.658Z,48.40
2022-11-13T01:35:24.663Z,48.36
2022-11-13T01:36:24.654Z,46.28
2022-11-13T01:37:24.631Z,47.72
2022-11-13T01:38:24.961Z,49.42
2022-11-13T01:39:24.638Z,46.16
2022-11-13T01:40:24.613Z,47.22
2022-11-13T01:41:24.612Z,48.39
2022-11-13T01:42:26.146Z,49.15
2022-11-13T01:43:24.627Z,49.14
2022-11-13T01:44:24.599Z,48.66
2022-11-13T01:45:25.123Z,49.87
2022-11-13T01:46:24.585Z,55.18
2022-11-13T01:47:24.575Z,49.80
2022-11-13T01:48:24.767Z,51.13
2022-11-13T01:49:24.562Z,48.97
2022-11-13T01:50:24.579Z,48.48
2022-11-13T01:51:24.562Z,50.77
2022-11-13T01:52:24.544Z,49.43
2022-11-13T01:53:24.535Z,49.90
2022-11-13T01:54:24.644Z,47.19
2022-11-13T01:55:24.549Z,48.90
2022-11-13T01:56:24.589Z,49.99
2022-11-13T01:57:24.507Z,49.24
2022-11-13T01:58:24.707Z,46.98
2022-11-13T01:59:24.496Z,46.47
2022-11-13T02:00:24.509Z,50.34
2022-11-13T02:01:24.549Z,50.25
2022-11-13T02:02:24.482Z,47.42
2022-11-13T02:03:24.461Z,47.05
2022-11-13T02:04:24.465Z,48.54
2022-11-13T02:05:24.515Z,47.82
2022-11-13T02:06:24.828Z,47.73
2022-11-13T02:07:24.501Z,52.28
2022-11-13T02:08:24.516Z,51.11
2022-11-13T02:09:24.421Z,49.10
2022-11-13T02:10:24.539Z,46.56
2022-11-13T02:11:24.415Z,47.52
2022-11-13T02:12:25.493Z,49.76
2022-11-13T02:13:24.430Z,46.27
2022-11-13T02:14:24.408Z,48.91
2022-11-13T02:15:24.388Z,48.23
2022-11-13T02:16:24.388Z,47.25
2022-11-13T02:17:24.395Z,47.95
2022-11-13T02:18:24.462Z,45.78
2022-11-13T02:19:24.359Z,54.11
2022-11-13T02:20:24.363Z,52.78
2022-11-13T02:21:24.413Z,52.99
2022-11-13T02:22:24.338Z,51.30
2022-11-13T02:23:25.100Z,53.08
2022-11-13T02:24:24.325Z,50.76
2022-11-13T02:25:24.332Z,53.14
2022-11-13T02:26:24.439Z,47.13
2022-11-13T02:27:24.317Z,51.94
2022-11-13T02:28:24.310Z,51.63
2022-11-13T02:29:24.294Z,50.66
2022-11-13T02:30:27.200Z,48.61
2022-11-13T02:31:24.283Z,47.38
2022-11-13T02:32:25.480Z,47.93
2022-11-13T02:33:25.040Z,48.33
2022-11-13T02:34:24.258Z,49.59
2022-11-13T02:35:24.251Z,53.15
2022-11-13T02:36:24.250Z,57.93
2022-11-13T02:37:24.234Z,50.24
2022-11-13T02:38:24.237Z,47.38
2022-11-13T02:39:24.627Z,46.69
2022-11-13T02:40:24.215Z,47.67
2022-11-13T02:41:24.211Z,51.23
2022-11-13T02:42:24.315Z,49.92
2022-11-13T02:43:24.199Z,51.13
2022-11-13T02:44:24.194Z,57.23
2022-11-13T02:45:24.866Z,50.79
2022-11-13T02:46:24.180Z,48.35
2022-11-13T02:47:24.171Z,49.70
2022-11-13T02:48:24.162Z,49.38
2022-11-13T02:49:24.157Z,50.72
2022-11-13T02:50:25.457Z,46.00
2022-11-13T02:51:24.144Z,46.61
2022-11-13T02:52:24.191Z,50.07
2022-11-13T02:53:24.136Z,53.82
2022-11-13T02:54:24.124Z,57.44
2022-11-13T02:55:24.126Z,52.49
2022-11-13T02:56:24.114Z,50.07
2022-11-13T02:57:24.096Z,52.53
2022-11-13T02:58:24.220Z,50.83
2022-11-13T02:59:24.092Z,49.59
2022-11-13T03:00:24.525Z,49.92
2022-11-13T03:01:24.138Z,46.82
2022-11-13T03:02:24.063Z,46.93
2022-11-13T03:03:48.128Z,48.17
2022-11-13T03:04:25.054Z,48.65
2022-11-13T03:05:24.042Z,48.48
2022-11-13T03:06:24.052Z,47.04
2022-11-13T03:07:24.125Z,45.74
2022-11-13T03:08:24.052Z,48.93
2022-11-13T03:09:24.017Z,51.32
2022-11-13T03:10:24.015Z,52.05
2022-11-13T03:11:24.037Z,49.13
2022-11-13T03:12:23.997Z,50.28
2022-11-13T03:13:23.993Z,48.51
2022-11-13T03:14:24.104Z,46.93
2022-11-13T03:15:23.977Z,49.48
2022-11-13T03:16:24.239Z,49.52
2022-11-13T03:17:23.962Z,48.54
2022-11-13T03:18:24.154Z,47.03
2022-11-13T03:19:23.996Z,48.10
2022-11-13T03:20:23.949Z,46.82
2022-11-13T03:21:23.954Z,48.37
2022-11-13T03:22:23.958Z,48.33
2022-11-13T03:23:23.952Z,48.41
2022-11-13T03:24:24.232Z,50.16
2022-11-13T03:25:23.915Z,54.88
2022-11-13T03:26:23.953Z,48.25
2022-11-13T03:27:24.182Z,52.21
2022-11-13T03:28:23.887Z,50.70
2022-11-13T03:29:23.908Z,50.35
2022-11-13T03:30:24.017Z,51.69
2022-11-13T03:31:23.880Z,49.63
2022-11-13T03:32:23.880Z,48.19
2022-11-13T03:33:23.894Z,47.93
2022-11-13T03:34:23.871Z,51.05
2022-11-13T03:35:23.852Z,49.83
2022-11-13T03:36:23.840Z,49.98
2022-11-13T03:37:23.838Z,48.86
2022-11-13T03:38:23.837Z,45.93
2022-11-13T03:39:23.825Z,48.19
2022-11-13T03:40:23.813Z,50.71
2022-11-13T03:41:23.832Z,54.34
2022-11-13T03:42:23.802Z,52.81
2022-11-13T03:43:23.789Z,49.85
2022-11-13T03:44:23.797Z,51.26
2022-11-13T03:45:23.969Z,49.89
2022-11-13T03:46:23.892Z,48.24
2022-11-13T03:47:23.771Z,47.75
2022-11-13T03:48:23.770Z,48.51
2022-11-13T03:49:23.760Z,48.37
2022-11-13T03:50:23.749Z,52.77
2022-11-13T03:51:24.238Z,51.04
2022-11-13T03:52:23.737Z,51.13
2022-11-13T03:53:23.721Z,49.92
2022-11-13T03:54:23.719Z,48.18
2022-11-13T03:55:23.719Z,52.34
2022-11-13T03:56:23.712Z,52.34
2022-11-13T03:57:23.738Z,49.48
2022-11-13T03:58:23.690Z,49.84
2022-11-13T03:59:23.687Z,47.02
2022-11-13T04:00:23.679Z,48.93
2022-11-13T04:01:23.756Z,51.41
2022-11-13T04:02:23.784Z,50.12
2022-11-13T04:03:23.655Z,50.47
2022-11-13T04:04:23.657Z,51.24
2022-11-13T04:05:23.643Z,52.19
2022-11-13T04:06:23.648Z,49.54
2022-11-13T04:07:24.130Z,46.89
2022-11-13T04:08:23.623Z,46.00
2022-11-13T04:09:23.624Z,46.15
2022-11-13T04:10:23.607Z,45.71
2022-11-13T04:11:23.592Z,48.29
2022-11-13T04:12:23.595Z,50.94
2022-11-13T04:13:23.607Z,51.48
2022-11-13T04:14:23.594Z,50.84
2022-11-13T04:15:23.562Z,51.76
2022-11-13T04:16:23.564Z,51.54
2022-11-13T04:17:23.562Z,52.20
2022-11-13T04:18:24.931Z,52.76
2022-11-13T04:19:23.539Z,50.85
2022-11-13T04:20:23.529Z,52.50
2022-11-13T04:21:23.574Z,56.08
2022-11-13T04:22:24.181Z,52.13
2022-11-13T04:23:23.506Z,49.34
2022-11-13T04:24:23.508Z,48.68
2022-11-13T04:25:23.497Z,46.96
2022-11-13T04:26:23.495Z,47.04
2022-11-13T04:27:23.487Z,45.69
2022-11-13T04:28:23.485Z,49.62
2022-11-13T04:29:23.465Z,50.46
2022-11-13T04:30:23.476Z,50.07
2022-11-13T04:31:23.456Z,51.15
2022-11-13T04:32:24.493Z,48.48
2022-11-13T04:33:25.397Z,49.37
2022-11-13T04:34:23.555Z,47.75
2022-11-13T04:35:24.072Z,47.27
2022-11-13T04:36:23.417Z,47.92
2022-11-13T04:37:23.425Z,46.53
2022-11-13T04:38:23.406Z,47.71
2022-11-13T04:39:23.401Z,46.96
2022-11-13T04:40:23.388Z,47.99
2022-11-13T04:41:23.389Z,46.29
2022-11-13T04:42:23.380Z,47.39
2022-11-13T04:43:23.372Z,47.81
2022-11-13T04:44:23.378Z,50.60
2022-11-13T04:45:23.355Z,49.33
2022-11-13T04:46:23.937Z,48.69
2022-11-13T04:47:23.346Z,49.35
2022-11-13T04:48:24.455Z,50.86
2022-11-13T04:49:23.334Z,47.13
2022-11-13T04:50:23.456Z,48.54
2022-11-13T04:51:23.318Z,48.08
2022-11-13T04:52:23.668Z,50.66
2022-11-13T04:53:23.297Z,52.21
2022-11-13T04:54:28.573Z,52.74
2022-11-13T04:55:23.288Z,50.95
2022-11-13T04:56:23.280Z,50.44
2022-11-13T04:57:23.275Z,51.06
2022-11-13T04:58:23.284Z,51.60
2022-11-13T04:59:23.877Z,48.99
2022-11-13T05:00:23.258Z,49.07
2022-11-13T05:01:24.732Z,48.24
2022-11-13T05:02:24.165Z,50.35
2022-11-13T05:03:23.284Z,50.52
2022-11-13T05:04:23.226Z,49.43
2022-11-13T05:05:23.211Z,49.48
2022-11-13T05:06:24.564Z,48.25
2022-11-13T05:07:23.221Z,47.77
2022-11-13T05:08:23.195Z,47.80
2022-11-13T05:09:23.947Z,50.36
2022-11-13T05:10:23.200Z,51.17
2022-11-13T05:11:23.170Z,51.42
2022-11-13T05:12:23.171Z,50.49
2022-11-13T05:13:23.169Z,50.00
2022-11-13T05:14:23.152Z,50.51
2022-11-13T05:15:23.163Z,49.50
2022-11-13T05:16:23.148Z,47.10
2022-11-13T05:17:23.133Z,49.41
2022-11-13T05:18:23.124Z,49.21
2022-11-13T05:19:23.124Z,50.01
2022-11-13T05:20:23.115Z,49.61
2022-11-13T05:21:23.112Z,48.02
2022-11-13T05:22:23.228Z,48.98
2022-11-13T05:23:23.092Z,48.46
2022-11-13T05:24:23.102Z,50.28
2022-11-13T05:25:23.073Z,51.12
2022-11-13T05:26:23.066Z,50.52
2022-11-13T05:27:23.069Z,49.91
2022-11-13T05:28:23.052Z,49.91
2022-11-13T05:29:23.058Z,48.87
2022-11-13T05:30:23.064Z,48.44
2022-11-13T05:31:23.037Z,46.65
2022-11-13T05:32:24.196Z,46.79
2022-11-13T05:33:23.018Z,46.46
2022-11-13T05:34:23.018Z,46.70
2022-11-13T05:35:23.950Z,47.79
2022-11-13T05:36:22.999Z,49.94
2022-11-13T05:37:23.006Z,52.31
2022-11-13T05:38:23.092Z,48.66
2022-11-13T05:39:24.237Z,50.19
2022-11-13T05:40:22.961Z,51.64
2022-11-13T05:41:23.947Z,50.05
2022-11-13T05:42:23.442Z,49.98
2022-11-13T05:43:22.932Z,50.03
2022-11-13T05:44:22.936Z,47.78
2022-11-13T05:45:22.918Z,48.66
2022-11-13T05:46:22.921Z,49.47
2022-11-13T05:47:22.914Z,49.75
2022-11-13T05:48:22.913Z,49.92
2022-11-13T05:49:22.978Z,48.97
2022-11-13T05:50:22.894Z,49.68
2022-11-13T05:51:22.875Z,51.27
2022-11-13T05:52:22.879Z,50.15
2022-11-13T05:53:23.540Z,50.29
2022-11-13T05:54:22.996Z,49.88
2022-11-13T05:55:23.628Z,51.87
2022-11-13T05:56:22.850Z,51.28
2022-11-13T05:57:22.846Z,48.36
2022-11-13T05:58:22.836Z,50.49
2022-11-13T05:59:22.818Z,51.57
2022-11-13T06:00:24.010Z,50.71
2022-11-13T06:01:22.805Z,53.27
2022-11-13T06:02:22.917Z,51.49
2022-11-13T06:03:22.813Z,48.77
2022-11-13T06:04:22.788Z,50.38
2022-11-13T06:05:22.768Z,49.90
2022-11-13T06:06:22.770Z,52.02
2022-11-13T06:07:22.792Z,52.03
2022-11-13T06:08:22.751Z,51.17
2022-11-13T06:09:22.763Z,48.26
2022-11-13T06:10:22.862Z,51.39
2022-11-13T06:11:22.725Z,51.39
2022-11-13T06:12:22.740Z,51.65
2022-11-13T06:13:22.713Z,49.52
2022-11-13T06:14:22.720Z,50.88
2022-11-13T06:15:22.725Z,54.34
2022-11-13T06:16:22.692Z,52.84
2022-11-13T06:17:23.150Z,53.12
2022-11-13T06:18:26.480Z,50.36
2022-11-13T06:19:22.675Z,55.29
2022-11-13T06:20:22.664Z,50.35
2022-11-13T06:21:22.664Z,53.93
2022-11-13T06:22:22.658Z,53.45
2022-11-13T06:23:22.640Z,53.67
2022-11-13T06:24:22.641Z,56.33
2022-11-13T06:25:22.622Z,50.74
2022-11-13T06:26:22.746Z,51.47
2022-11-13T06:27:22.607Z,49.89
2022-11-13T06:28:30.177Z,49.72
2022-11-13T06:29:28.503Z,50.01
2022-11-13T06:30:23.749Z,51.78
2022-11-13T06:31:22.579Z,51.92
2022-11-13T06:32:22.700Z,50.75
2022-11-13T06:33:22.581Z,51.83
2022-11-13T06:34:22.552Z,50.72
2022-11-13T06:35:22.550Z,50.34
2022-11-13T06:36:22.546Z,48.93
2022-11-13T06:37:22.823Z,49.22
2022-11-13T06:38:22.532Z,52.40
2022-11-13T06:39:22.607Z,53.61
2022-11-13T06:40:22.506Z,53.53
2022-11-13T06:41:22.761Z,54.05
2022-11-13T06:42:22.608Z,50.19
2022-11-13T06:43:22.486Z,47.60
2022-11-13T06:44:22.489Z,50.07
2022-11-13T06:45:22.473Z,48.91
2022-11-13T06:46:22.535Z,49.86
2022-11-13T06:47:22.467Z,51.46
2022-11-13T06:48:22.453Z,51.95
2022-11-13T06:49:22.461Z,50.60
2022-11-13T06:50:22.438Z,49.62
2022-11-13T06:51:22.435Z,50.85
2022-11-13T06:52:22.427Z,53.18
2022-11-13T06:53:22.416Z,53.69
2022-11-13T06:54:22.880Z,51.82
2022-11-13T06:55:22.408Z,52.36
2022-11-13T06:56:22.391Z,52.54
2022-11-13T06:57:22.526Z,51.84
2022-11-13T06:58:22.505Z,52.40
2022-11-13T06:59:22.393Z,51.76
2022-11-13T07:00:22.370Z,52.25
2022-11-13T07:01:22.558Z,51.50
2022-11-13T07:02:23.255Z,50.55
2022-11-13T07:03:22.354Z,51.16
2022-11-13T07:04:22.335Z,53.04
2022-11-13T07:05:22.328Z,52.29
2022-11-13T07:06:22.326Z,51.50
2022-11-13T07:07:22.403Z,51.98
2022-11-13T07:08:22.309Z,51.74
2022-11-13T07:09:22.313Z,49.74
2022-11-13T07:10:22.292Z,48.78
2022-11-13T07:11:22.308Z,50.90
2022-11-13T07:12:22.283Z,50.49
2022-11-13T07:13:23.489Z,51.66
2022-11-13T07:14:22.382Z,52.97
2022-11-13T07:15:22.259Z,52.92
2022-11-13T07:17:07.903Z,53.34
2022-11-13T07:17:23.242Z,62.47
2022-11-13T07:18:24.508Z,52.44
2022-11-13T07:19:22.231Z,52.68
2022-11-13T07:20:22.257Z,54.18
2022-11-13T07:21:22.230Z,53.12
2022-11-13T07:22:22.199Z,53.49
2022-11-13T07:23:22.223Z,50.75
2022-11-13T07:24:22.189Z,52.16
2022-11-13T07:25:22.177Z,49.79
2022-11-13T07:26:22.744Z,50.81
2022-11-13T07:27:22.171Z,51.38
2022-11-13T07:28:22.156Z,52.36
2022-11-13T07:29:22.158Z,50.95
2022-11-13T07:30:22.257Z,50.89
2022-11-13T07:31:22.985Z,52.98
2022-11-13T07:32:22.134Z,51.75
2022-11-13T07:33:22.121Z,52.73
2022-11-13T07:34:22.120Z,53.47
2022-11-13T07:35:22.147Z,52.64
2022-11-13T07:36:22.121Z,54.15
2022-11-13T07:37:22.093Z,52.75
2022-11-13T07:38:22.097Z,53.10
2022-11-13T07:39:22.089Z,52.95
2022-11-13T07:40:22.636Z,55.12
2022-11-13T07:41:22.075Z,53.73
2022-11-13T07:42:22.062Z,53.52
2022-11-13T07:43:22.063Z,52.49
2022-11-13T07:44:47.853Z,54.08
2022-11-13T07:45:23.189Z,51.79
2022-11-13T07:46:22.168Z,55.79
2022-11-13T07:47:22.037Z,54.09
2022-11-13T07:48:22.024Z,53.05
2022-11-13T07:49:22.026Z,53.84
2022-11-13T07:50:22.053Z,54.08
2022-11-13T07:51:22.006Z,55.62
2022-11-13T07:52:22.005Z,54.74
2022-11-13T07:53:22.702Z,54.24
2022-11-13T07:54:21.992Z,54.59
2022-11-13T07:55:21.986Z,52.84
2022-11-13T07:56:23.249Z,51.89
2022-11-13T07:57:21.971Z,53.09
2022-11-13T07:58:22.760Z,54.93
2022-11-13T07:59:21.962Z,51.35
2022-11-13T08:00:21.953Z,52.43
2022-11-13T08:01:21.956Z,55.03
2022-11-13T08:02:26.250Z,53.52
2022-11-13T08:03:21.930Z,54.40
2022-11-13T08:04:21.921Z,54.78
2022-11-13T08:05:21.916Z,53.74
2022-11-13T08:06:21.940Z,51.53
2022-11-13T08:07:21.962Z,54.57
2022-11-13T08:08:21.922Z,53.40
2022-11-13T08:09:21.890Z,52.86
2022-11-13T08:10:21.877Z,51.87
2022-11-13T08:11:21.876Z,52.78
2022-11-13T08:12:23.083Z,54.28
2022-11-13T08:13:22.001Z,54.45
2022-11-13T08:14:21.857Z,53.01
2022-11-13T08:15:21.848Z,53.52
2022-11-13T08:16:21.845Z,53.50
2022-11-13T08:17:21.837Z,55.93
2022-11-13T08:18:22.158Z,52.77
2022-11-13T08:19:21.830Z,53.15
2022-11-13T08:20:21.819Z,53.59
2022-11-13T08:21:21.807Z,51.44
2022-11-13T08:22:21.806Z,53.74
2022-11-13T08:23:22.272Z,52.69
2022-11-13T08:24:21.807Z,52.43
2022-11-13T08:25:21.802Z,53.24
2022-11-13T08:26:21.804Z,53.70
2022-11-13T08:27:21.769Z,51.98
2022-11-13T08:28:21.766Z,51.86
2022-11-13T08:29:25.524Z,52.23
2022-11-13T08:30:21.744Z,51.76
2022-11-13T08:31:21.736Z,52.67
2022-11-13T08:32:21.737Z,52.74
2022-11-13T08:33:21.722Z,51.76
2022-11-13T08:34:21.857Z,52.99
2022-11-13T08:35:26.544Z,52.86
2022-11-13T08:36:22.700Z,53.66
2022-11-13T08:37:21.699Z,53.40
2022-11-13T08:38:21.696Z,56.15
2022-11-13T08:39:21.683Z,52.29
2022-11-13T08:40:21.694Z,52.80
2022-11-13T08:41:21.676Z,51.92
2022-11-13T08:42:21.662Z,52.69
2022-11-13T08:43:21.769Z,51.38
2022-11-13T08:44:21.657Z,53.78
2022-11-13T08:45:21.648Z,51.98
2022-11-13T08:46:21.651Z,56.20
2022-11-13T08:47:25.564Z,54.24
2022-11-13T08:48:22.618Z,53.58
2022-11-13T08:49:21.618Z,51.85
2022-11-13T08:50:22.695Z,50.17
2022-11-13T08:51:23.592Z,50.97
2022-11-13T08:52:21.604Z,50.83
2022-11-13T08:53:21.587Z,52.06
2022-11-13T08:54:21.586Z,52.13
2022-11-13T08:55:21.588Z,51.84
2022-11-13T08:56:21.573Z,50.37
2022-11-13T08:57:21.566Z,51.33
2022-11-13T08:58:21.769Z,51.21
2022-11-13T08:59:21.548Z,51.84
2022-11-13T09:00:21.554Z,51.78
2022-11-13T09:01:21.545Z,50.59
2022-11-13T09:02:21.536Z,51.99
2022-11-13T09:03:21.638Z,50.93
2022-11-13T09:04:21.522Z,51.43
2022-11-13T09:05:21.515Z,52.42
2022-11-13T09:06:22.324Z,50.69
2022-11-13T09:07:26.936Z,50.56
2022-11-13T09:08:22.488Z,51.01
2022-11-13T09:09:21.480Z,51.83
2022-11-13T09:10:21.763Z,53.07
2022-11-13T09:11:21.466Z,52.21
2022-11-13T09:12:21.455Z,54.72
2022-11-13T09:13:21.461Z,52.08
2022-11-13T09:14:22.564Z,51.52
2022-11-13T09:15:24.424Z,51.24
2022-11-13T09:16:21.467Z,51.24
2022-11-13T09:17:21.459Z,52.71
2022-11-13T09:18:21.415Z,51.04
2022-11-13T09:19:21.406Z,50.85
2022-11-13T09:20:22.967Z,52.32
2022-11-13T09:21:21.400Z,51.22
2022-11-13T09:22:22.030Z,53.34
2022-11-13T09:23:21.391Z,52.35
2022-11-13T09:24:21.380Z,50.84
2022-11-13T09:25:21.385Z,51.14
2022-11-13T09:26:21.407Z,53.95
2022-11-13T09:27:21.982Z,54.11
2022-11-13T09:28:21.361Z,56.27
2022-11-13T09:29:21.347Z,53.45
2022-11-13T09:30:21.357Z,52.58
2022-11-13T09:31:21.338Z,52.12
2022-11-13T09:32:21.349Z,52.45
2022-11-13T09:33:21.329Z,50.71
2022-11-13T09:34:21.342Z,51.72
2022-11-13T09:35:21.303Z,51.30
2022-11-13T09:36:22.046Z,51.11
2022-11-13T09:37:21.321Z,50.57
2022-11-13T09:38:21.403Z,51.91
2022-11-13T09:39:21.773Z,51.56
2022-11-13T09:40:21.269Z,53.62
2022-11-13T09:41:21.270Z,52.46
2022-11-13T09:42:21.263Z,52.74
2022-11-13T09:43:21.251Z,49.42
2022-11-13T09:44:21.243Z,49.79
2022-11-13T09:45:21.539Z,52.49
2022-11-13T09:46:21.240Z,52.17
2022-11-13T09:47:21.846Z,51.07
2022-11-13T09:48:21.236Z,54.45
2022-11-13T09:49:21.213Z,50.13
2022-11-13T09:50:21.281Z,55.18
2022-11-13T09:51:21.224Z,51.45
2022-11-13T09:52:21.206Z,50.58
2022-11-13T09:53:21.230Z,50.17
2022-11-13T09:54:21.300Z,50.09
2022-11-13T09:55:21.175Z,49.92
2022-11-13T09:56:21.172Z,50.09
2022-11-13T09:57:26.085Z,51.37
2022-11-13T09:58:21.148Z,51.12
2022-11-13T09:59:21.150Z,50.83
2022-11-13T10:00:21.183Z,51.42
2022-11-13T10:01:21.181Z,51.60
2022-11-13T10:02:21.126Z,51.00
2022-11-13T10:03:46.219Z,51.20
2022-11-13T10:04:22.261Z,53.30
2022-11-13T10:05:21.102Z,52.38
2022-11-13T10:06:21.113Z,51.98
2022-11-13T10:07:21.156Z,51.88
2022-11-13T10:08:21.079Z,51.83
2022-11-13T10:09:21.169Z,52.34
2022-11-13T10:10:21.310Z,52.12
2022-11-13T10:11:21.058Z,52.57
2022-11-13T10:12:21.056Z,52.86
2022-11-13T10:13:21.043Z,52.27
2022-11-13T10:14:22.030Z,55.17
2022-11-13T10:15:21.812Z,52.89
2022-11-13T10:16:21.025Z,54.35
2022-11-13T10:17:21.010Z,54.02
2022-11-13T10:18:21.004Z,52.96
2022-11-13T10:19:21.006Z,52.29
2022-11-13T10:20:21.030Z,52.01
2022-11-13T10:21:21.056Z,54.00
2022-11-13T10:22:37.831Z,53.84
2022-11-13T10:23:21.968Z,52.88
2022-11-13T10:24:20.967Z,53.36
2022-11-13T10:25:20.954Z,51.78
2022-11-13T10:26:21.076Z,53.16
2022-11-13T10:27:20.949Z,54.09
2022-11-13T10:28:48.787Z,51.95
2022-11-13T10:29:21.937Z,51.80
2022-11-13T10:30:21.043Z,52.34
2022-11-13T10:31:20.923Z,52.95
2022-11-13T10:32:20.904Z,59.62
2022-11-13T10:33:21.926Z,52.32
2022-11-13T10:34:20.899Z,55.74
2022-11-13T10:35:20.913Z,53.41
2022-11-13T10:36:20.886Z,53.23
2022-11-13T10:37:20.886Z,52.53
2022-11-13T10:38:20.873Z,52.17
2022-11-13T10:39:20.884Z,53.06
2022-11-13T10:40:21.969Z,58.82
2022-11-13T10:41:20.858Z,54.11
2022-11-13T10:42:21.052Z,54.24
2022-11-13T10:43:20.832Z,54.40
2022-11-13T10:44:21.147Z,55.68
2022-11-13T10:45:20.843Z,55.66
2022-11-13T10:46:21.006Z,53.85
2022-11-13T10:47:42.474Z,53.35
2022-11-13T10:48:22.225Z,53.96
2022-11-13T10:49:20.810Z,53.03
2022-11-13T10:50:20.791Z,53.17
2022-11-13T10:51:20.800Z,52.27
2022-11-13T10:52:21.977Z,53.41
2022-11-13T10:53:20.761Z,55.66
2022-11-13T10:54:20.777Z,53.92
2022-11-13T10:55:20.757Z,53.57
2022-11-13T10:56:20.756Z,53.96
2022-11-13T10:57:22.001Z,53.73
2022-11-13T10:58:20.860Z,53.35
2022-11-13T10:59:20.736Z,53.17
2022-11-13T11:00:20.730Z,52.93
2022-11-13T11:01:21.181Z,53.97
2022-11-13T11:02:21.200Z,53.73
2022-11-13T11:03:20.703Z,52.86
2022-11-13T11:04:20.698Z,53.75
2022-11-13T11:05:20.680Z,54.32
2022-11-13T11:06:20.654Z,51.65
2022-11-13T11:07:22.219Z,52.04
2022-11-13T11:08:20.676Z,51.14
2022-11-13T11:09:23.115Z,51.67
2022-11-13T11:10:20.659Z,52.04
2022-11-13T11:11:20.658Z,57.00
2022-11-13T11:12:24.311Z,51.33
2022-11-13T11:13:21.610Z,51.64
2022-11-13T11:14:20.736Z,51.39
2022-11-13T11:15:20.602Z,51.01
2022-11-13T11:16:20.610Z,52.17
2022-11-13T11:17:20.583Z,50.27
2022-11-13T11:18:20.926Z,50.36
2022-11-13T11:19:21.502Z,49.93
2022-11-13T11:20:20.564Z,49.33
2022-11-13T11:21:20.555Z,49.40
2022-11-13T11:22:20.547Z,49.34
2022-11-13T11:23:20.569Z,49.94
2022-11-13T11:24:20.532Z,49.46
2022-11-13T11:25:20.523Z,50.13
2022-11-13T11:26:20.511Z,48.59
2022-11-13T11:27:20.538Z,48.06
2022-11-13T11:28:20.509Z,47.72
2022-11-13T11:29:20.530Z,49.16
2022-11-13T11:30:20.603Z,48.00
2022-11-13T11:31:20.495Z,50.89
2022-11-13T11:32:20.475Z,54.71
2022-11-13T11:33:20.460Z,50.09
2022-11-13T11:34:20.476Z,53.50
2022-11-13T11:35:20.457Z,48.15
2022-11-13T11:36:20.447Z,48.36
2022-11-13T11:37:22.551Z,47.42
2022-11-13T11:38:20.421Z,47.28
2022-11-13T11:39:20.492Z,48.50
2022-11-13T11:40:23.270Z,47.45
2022-11-13T11:41:20.413Z,51.67
2022-11-13T11:42:20.412Z,54.72
2022-11-13T11:43:20.389Z,47.42
2022-11-13T11:44:20.821Z,48.43
2022-11-13T11:45:20.377Z,48.37
2022-11-13T11:46:20.502Z,48.24
2022-11-13T11:47:20.541Z,47.54
2022-11-13T11:48:20.357Z,46.91
2022-11-13T11:49:20.382Z,47.29
2022-11-13T11:50:20.353Z,47.35
2022-11-13T11:51:20.339Z,47.11
2022-11-13T11:52:20.337Z,46.67
2022-11-13T11:53:20.333Z,47.41
2022-11-13T11:54:20.319Z,46.91
2022-11-13T11:55:20.305Z,48.13
2022-11-13T11:56:20.325Z,48.30
2022-11-13T11:57:20.298Z,48.18
2022-11-13T11:58:20.285Z,49.98
2022-11-13T11:59:20.737Z,47.98
2022-11-13T12:00:20.979Z,48.31
2022-11-13T12:01:20.271Z,49.95
2022-11-13T12:02:20.286Z,48.77
2022-11-13T12:03:20.255Z,47.90
2022-11-13T12:04:20.288Z,49.80
2022-11-13T12:05:20.581Z,51.36
2022-11-13T12:06:20.231Z,53.28
2022-11-13T12:07:20.577Z,49.01
2022-11-13T12:08:20.223Z,52.23
2022-11-13T12:09:20.200Z,48.14
2022-11-13T12:10:20.901Z,47.83
2022-11-13T12:11:20.196Z,46.85
2022-11-13T12:12:20.191Z,46.75
2022-11-13T12:13:20.179Z,47.73
2022-11-13T12:14:20.172Z,49.42
2022-11-13T12:15:20.200Z,51.27
2022-11-13T12:16:24.836Z,49.61
2022-11-13T12:17:21.155Z,52.75
2022-11-13T12:18:20.249Z,48.71
2022-11-13T12:19:20.131Z,49.21
2022-11-13T12:20:20.146Z,53.71
2022-11-13T12:21:20.185Z,49.28
2022-11-13T12:22:20.253Z,48.64
2022-11-13T12:23:20.147Z,49.15
2022-11-13T12:24:20.090Z,50.51
2022-11-13T12:25:20.089Z,49.91
2022-11-13T12:26:20.110Z,48.80
2022-11-13T12:27:20.072Z,48.56
2022-11-13T12:28:20.148Z,49.69
2022-11-13T12:29:29.496Z,48.54
2022-11-13T12:30:20.056Z,48.44
2022-11-13T12:31:20.082Z,48.85
2022-11-13T12:32:20.038Z,47.57
2022-11-13T12:33:20.049Z,49.03
2022-11-13T12:34:20.154Z,51.28
2022-11-13T12:35:20.088Z,49.67
2022-11-13T12:36:20.006Z,50.73
2022-11-13T12:37:20.118Z,50.64
2022-11-13T12:38:20.003Z,51.56
2022-11-13T12:39:19.988Z,51.51
2022-11-13T12:40:19.977Z,50.93
2022-11-13T12:41:19.969Z,50.01
2022-11-13T12:42:19.963Z,50.37
2022-11-13T12:43:19.970Z,51.42
2022-11-13T12:44:19.937Z,50.75
2022-11-13T12:45:19.942Z,48.23
2022-11-13T12:46:19.927Z,48.98
2022-11-13T12:47:19.924Z,49.23
2022-11-13T12:48:19.916Z,48.13
2022-11-13T12:49:19.903Z,47.82
2022-11-13T12:50:20.021Z,47.71
2022-11-13T12:51:19.895Z,48.18
2022-11-13T12:52:19.940Z,49.58